sensor_id;sensor_type;location;lat;lon;timestamp;P1;durP1;ratioP1;P2;durP2;ratioP2
20101;SDS011;10210;52.284;9.892;2023-06-10T00:02:01;9.40;;;3.30;;
20101;SDS011;10210;52.284;9.892;2023-06-10T00:04:27;8.40;;;3.30;;
20101;SDS011;10210;52.284;9.892;2023-06-10T00:06:54;9.13;;;3.17;;
20101;SDS011;10210;52.284;9.892;2023-06-10T00:09:20;7.60;;;2.97;;
20101;SDS011;10210;52.284;9.892;2023-06-10T00:11:49;11.13;;;3.67;;
20101;SDS011;10210;52.284;9.892;2023-06-10T00:14:14;9.00;;;3.33;;
20101;SDS011;10210;52.284;9.892;2023-06-10T00:16:41;10.80;;;3.60;;
20101;SDS011;10210;52.284;9.892;2023-06-10T00:19:09;9.17;;;3.73;;
20101;SDS011;10210;52.284;9.892;2023-06-10T00:21:38;8.83;;;3.10;;
20101;SDS011;10210;52.284;9.892;2023-06-10T00:24:08;12.57;;;3.30;;
20101;SDS011;10210;52.284;9.892;2023-06-10T00:26:40;8.07;;;3.37;;
20101;SDS011;10210;52.284;9.892;2023-06-10T00:29:06;9.13;;;3.23;;
20101;SDS011;10210;52.284;9.892;2023-06-10T00:31:37;8.47;;;3.17;;
20101;SDS011;10210;52.284;9.892;2023-06-10T00:34:04;10.17;;;3.57;;
20101;SDS011;10210;52.284;9.892;2023-06-10T00:36:30;7.70;;;3.00;;
20101;SDS011;10210;52.284;9.892;2023-06-10T00:38:56;11.23;;;3.40;;
20101;SDS011;10210;52.284;9.892;2023-06-10T00:41:24;8.67;;;3.10;;
20101;SDS011;10210;52.284;9.892;2023-06-10T00:43:51;9.90;;;3.57;;
20101;SDS011;10210;52.284;9.892;2023-06-10T00:46:17;8.73;;;3.10;;
20101;SDS011;10210;52.284;9.892;2023-06-10T00:48:43;10.03;;;3.67;;
20101;SDS011;10210;52.284;9.892;2023-06-10T00:51:10;9.13;;;3.60;;
20101;SDS011;10210;52.284;9.892;2023-06-10T00:53:37;9.07;;;3.63;;
20101;SDS011;10210;52.284;9.892;2023-06-10T00:56:07;8.67;;;3.40;;
20101;SDS011;10210;52.284;9.892;2023-06-10T00:58:34;8.07;;;3.17;;
20101;SDS011;10210;52.284;9.892;2023-06-10T01:01:01;8.77;;;3.17;;
20101;SDS011;10210;52.284;9.892;2023-06-10T01:03:28;7.54;;;2.89;;
20101;SDS011;10210;52.284;9.892;2023-06-10T01:06:02;8.97;;;3.33;;
20101;SDS011;10210;52.284;9.892;2023-06-10T01:08:56;10.07;;;3.43;;
20101;SDS011;10210;52.284;9.892;2023-06-10T01:11:43;8.87;;;3.60;;
20101;SDS011;10210;52.284;9.892;2023-06-10T01:14:19;9.43;;;3.37;;
20101;SDS011;10210;52.284;9.892;2023-06-10T01:16:45;9.10;;;3.47;;
20101;SDS011;10210;52.284;9.892;2023-06-10T01:19:13;10.03;;;3.27;;
20101;SDS011;10210;52.284;9.892;2023-06-10T01:21:41;9.23;;;3.27;;
20101;SDS011;10210;52.284;9.892;2023-06-10T01:24:08;10.00;;;3.60;;
20101;SDS011;10210;52.284;9.892;2023-06-10T01:26:35;10.73;;;3.50;;
20101;SDS011;10210;52.284;9.892;2023-06-10T01:29:07;8.37;;;3.30;;
20101;SDS011;10210;52.284;9.892;2023-06-10T01:31:58;9.90;;;3.53;;
20101;SDS011;10210;52.284;9.892;2023-06-10T01:34:57;9.33;;;3.27;;
20101;SDS011;10210;52.284;9.892;2023-06-10T01:37:25;10.20;;;3.30;;
20101;SDS011;10210;52.284;9.892;2023-06-10T01:39:55;8.00;;;3.00;;
20101;SDS011;10210;52.284;9.892;2023-06-10T01:42:23;8.80;;;3.30;;
20101;SDS011;10210;52.284;9.892;2023-06-10T01:44:51;9.70;;;3.53;;
20101;SDS011;10210;52.284;9.892;2023-06-10T01:47:19;9.83;;;3.93;;
20101;SDS011;10210;52.284;9.892;2023-06-10T01:49:46;10.37;;;3.57;;
20101;SDS011;10210;52.284;9.892;2023-06-10T01:52:13;10.13;;;3.50;;
20101;SDS011;10210;52.284;9.892;2023-06-10T01:54:39;10.43;;;3.63;;
20101;SDS011;10210;52.284;9.892;2023-06-10T01:57:05;8.93;;;3.20;;
20101;SDS011;10210;52.284;9.892;2023-06-10T01:59:31;7.53;;;3.00;;
20101;SDS011;10210;52.284;9.892;2023-06-10T02:01:57;8.53;;;3.37;;
20101;SDS011;10210;52.284;9.892;2023-06-10T02:04:22;9.57;;;3.60;;
20101;SDS011;10210;52.284;9.892;2023-06-10T02:06:48;9.73;;;3.40;;
20101;SDS011;10210;52.284;9.892;2023-06-10T02:09:14;7.70;;;3.00;;
20101;SDS011;10210;52.284;9.892;2023-06-10T02:11:39;9.13;;;3.40;;
20101;SDS011;10210;52.284;9.892;2023-06-10T02:14:05;9.47;;;3.30;;
20101;SDS011;10210;52.284;9.892;2023-06-10T02:16:30;10.17;;;3.40;;
20101;SDS011;10210;52.284;9.892;2023-06-10T02:18:56;8.67;;;3.00;;
20101;SDS011;10210;52.284;9.892;2023-06-10T02:21:24;9.60;;;3.43;;
20101;SDS011;10210;52.284;9.892;2023-06-10T02:23:51;9.77;;;3.60;;
20101;SDS011;10210;52.284;9.892;2023-06-10T02:26:16;7.53;;;3.20;;
20101;SDS011;10210;52.284;9.892;2023-06-10T02:28:42;9.23;;;3.47;;
20101;SDS011;10210;52.284;9.892;2023-06-10T02:31:08;8.97;;;3.00;;
20101;SDS011;10210;52.284;9.892;2023-06-10T02:33:34;9.43;;;3.07;;
20101;SDS011;10210;52.284;9.892;2023-06-10T02:36:00;8.20;;;3.27;;
20101;SDS011;10210;52.284;9.892;2023-06-10T02:38:25;9.87;;;3.43;;
20101;SDS011;10210;52.284;9.892;2023-06-10T02:40:51;12.07;;;4.10;;
20101;SDS011;10210;52.284;9.892;2023-06-10T02:43:17;8.90;;;3.17;;
20101;SDS011;10210;52.284;9.892;2023-06-10T02:45:43;10.57;;;4.03;;
20101;SDS011;10210;52.284;9.892;2023-06-10T02:48:08;9.27;;;3.37;;
20101;SDS011;10210;52.284;9.892;2023-06-10T02:50:34;8.97;;;3.20;;
20101;SDS011;10210;52.284;9.892;2023-06-10T02:53:00;11.30;;;4.00;;
20101;SDS011;10210;52.284;9.892;2023-06-10T02:55:27;9.33;;;3.33;;
20101;SDS011;10210;52.284;9.892;2023-06-10T02:57:54;11.23;;;3.67;;
20101;SDS011;10210;52.284;9.892;2023-06-10T03:00:20;9.57;;;3.57;;
20101;SDS011;10210;52.284;9.892;2023-06-10T03:02:46;8.17;;;3.30;;
20101;SDS011;10210;52.284;9.892;2023-06-10T03:05:12;10.53;;;3.17;;
20101;SDS011;10210;52.284;9.892;2023-06-10T03:07:39;8.90;;;3.27;;
20101;SDS011;10210;52.284;9.892;2023-06-10T03:10:05;11.33;;;3.63;;
20101;SDS011;10210;52.284;9.892;2023-06-10T03:12:32;10.90;;;3.47;;
20101;SDS011;10210;52.284;9.892;2023-06-10T03:14:57;10.43;;;3.63;;
20101;SDS011;10210;52.284;9.892;2023-06-10T03:17:23;9.33;;;3.43;;
20101;SDS011;10210;52.284;9.892;2023-06-10T03:19:49;7.87;;;3.30;;
20101;SDS011;10210;52.284;9.892;2023-06-10T03:22:15;8.70;;;3.40;;
20101;SDS011;10210;52.284;9.892;2023-06-10T03:24:42;9.27;;;3.70;;
20101;SDS011;10210;52.284;9.892;2023-06-10T03:27:09;8.33;;;3.13;;
20101;SDS011;10210;52.284;9.892;2023-06-10T03:29:36;11.20;;;3.90;;
20101;SDS011;10210;52.284;9.892;2023-06-10T03:32:02;10.23;;;3.50;;
20101;SDS011;10210;52.284;9.892;2023-06-10T03:34:29;9.63;;;3.67;;
20101;SDS011;10210;52.284;9.892;2023-06-10T03:36:57;9.73;;;3.97;;
20101;SDS011;10210;52.284;9.892;2023-06-10T03:39:23;9.07;;;3.47;;
20101;SDS011;10210;52.284;9.892;2023-06-10T03:41:49;11.23;;;4.17;;
20101;SDS011;10210;52.284;9.892;2023-06-10T03:44:16;11.07;;;3.63;;
20101;SDS011;10210;52.284;9.892;2023-06-10T03:46:41;10.60;;;3.87;;
20101;SDS011;10210;52.284;9.892;2023-06-10T03:49:07;10.70;;;3.97;;
20101;SDS011;10210;52.284;9.892;2023-06-10T03:51:35;8.90;;;3.53;;
20101;SDS011;10210;52.284;9.892;2023-06-10T03:54:02;11.50;;;3.80;;
20101;SDS011;10210;52.284;9.892;2023-06-10T03:56:28;9.83;;;3.50;;
20101;SDS011;10210;52.284;9.892;2023-06-10T03:58:54;11.30;;;3.80;;
20101;SDS011;10210;52.284;9.892;2023-06-10T04:01:20;11.23;;;3.73;;
20101;SDS011;10210;52.284;9.892;2023-06-10T04:03:49;10.17;;;3.60;;
20101;SDS011;10210;52.284;9.892;2023-06-10T04:06:16;9.93;;;3.90;;
20101;SDS011;10210;52.284;9.892;2023-06-10T04:08:42;12.77;;;4.03;;
20101;SDS011;10210;52.284;9.892;2023-06-10T04:11:08;10.60;;;3.80;;
20101;SDS011;10210;52.284;9.892;2023-06-10T04:13:34;10.10;;;4.00;;
20101;SDS011;10210;52.284;9.892;2023-06-10T04:15:59;9.47;;;3.60;;
20101;SDS011;10210;52.284;9.892;2023-06-10T04:18:25;10.47;;;3.50;;
20101;SDS011;10210;52.284;9.892;2023-06-10T04:20:53;12.13;;;3.83;;
20101;SDS011;10210;52.284;9.892;2023-06-10T04:23:20;9.27;;;3.67;;
20101;SDS011;10210;52.284;9.892;2023-06-10T04:25:46;12.00;;;4.50;;
20101;SDS011;10210;52.284;9.892;2023-06-10T04:28:11;9.23;;;3.80;;
20101;SDS011;10210;52.284;9.892;2023-06-10T04:30:37;11.40;;;4.17;;
20101;SDS011;10210;52.284;9.892;2023-06-10T04:33:03;11.70;;;4.10;;
20101;SDS011;10210;52.284;9.892;2023-06-10T04:35:31;12.83;;;4.80;;
20101;SDS011;10210;52.284;9.892;2023-06-10T04:37:57;10.63;;;3.80;;
20101;SDS011;10210;52.284;9.892;2023-06-10T04:40:23;10.53;;;4.17;;
20101;SDS011;10210;52.284;9.892;2023-06-10T04:42:49;13.37;;;4.63;;
20101;SDS011;10210;52.284;9.892;2023-06-10T04:45:15;10.10;;;3.80;;
20101;SDS011;10210;52.284;9.892;2023-06-10T04:47:40;10.90;;;4.17;;
20101;SDS011;10210;52.284;9.892;2023-06-10T04:50:06;11.20;;;4.10;;
20101;SDS011;10210;52.284;9.892;2023-06-10T04:52:32;11.80;;;4.57;;
20101;SDS011;10210;52.284;9.892;2023-06-10T04:54:58;10.83;;;4.23;;
20101;SDS011;10210;52.284;9.892;2023-06-10T04:57:24;11.77;;;4.07;;
20101;SDS011;10210;52.284;9.892;2023-06-10T04:59:50;10.63;;;4.50;;
20101;SDS011;10210;52.284;9.892;2023-06-10T05:02:19;10.53;;;4.47;;
20101;SDS011;10210;52.284;9.892;2023-06-10T05:04:45;12.83;;;4.57;;
20101;SDS011;10210;52.284;9.892;2023-06-10T05:07:10;11.17;;;4.43;;
20101;SDS011;10210;52.284;9.892;2023-06-10T05:09:36;11.53;;;4.50;;
20101;SDS011;10210;52.284;9.892;2023-06-10T05:12:02;12.00;;;4.27;;
20101;SDS011;10210;52.284;9.892;2023-06-10T05:14:30;11.03;;;4.37;;
20101;SDS011;10210;52.284;9.892;2023-06-10T05:16:57;12.37;;;4.57;;
20101;SDS011;10210;52.284;9.892;2023-06-10T05:19:23;13.03;;;4.50;;
20101;SDS011;10210;52.284;9.892;2023-06-10T05:21:50;11.87;;;4.50;;
20101;SDS011;10210;52.284;9.892;2023-06-10T05:24:16;10.53;;;3.73;;
20101;SDS011;10210;52.284;9.892;2023-06-10T05:26:41;12.17;;;4.23;;
20101;SDS011;10210;52.284;9.892;2023-06-10T05:29:10;11.17;;;4.03;;
20101;SDS011;10210;52.284;9.892;2023-06-10T05:31:36;13.53;;;4.27;;
20101;SDS011;10210;52.284;9.892;2023-06-10T05:34:01;12.97;;;4.00;;
20101;SDS011;10210;52.284;9.892;2023-06-10T05:36:27;12.67;;;4.00;;
20101;SDS011;10210;52.284;9.892;2023-06-10T05:38:53;13.20;;;4.40;;
20101;SDS011;10210;52.284;9.892;2023-06-10T05:41:20;13.07;;;4.43;;
20101;SDS011;10210;52.284;9.892;2023-06-10T05:43:47;10.33;;;4.00;;
20101;SDS011;10210;52.284;9.892;2023-06-10T05:46:12;13.20;;;4.53;;
20101;SDS011;10210;52.284;9.892;2023-06-10T05:48:39;14.33;;;4.70;;
20101;SDS011;10210;52.284;9.892;2023-06-10T05:51:05;12.47;;;4.37;;
20101;SDS011;10210;52.284;9.892;2023-06-10T05:53:31;12.20;;;4.00;;
20101;SDS011;10210;52.284;9.892;2023-06-10T05:55:58;13.70;;;4.70;;
20101;SDS011;10210;52.284;9.892;2023-06-10T05:58:25;11.07;;;4.13;;
20101;SDS011;10210;52.284;9.892;2023-06-10T06:00:51;12.77;;;4.20;;
20101;SDS011;10210;52.284;9.892;2023-06-10T06:03:19;13.43;;;4.57;;
20101;SDS011;10210;52.284;9.892;2023-06-10T06:05:45;13.33;;;4.47;;
20101;SDS011;10210;52.284;9.892;2023-06-10T06:08:11;13.13;;;4.40;;
20101;SDS011;10210;52.284;9.892;2023-06-10T06:10:38;14.23;;;4.80;;
20101;SDS011;10210;52.284;9.892;2023-06-10T06:13:04;15.03;;;4.53;;
20101;SDS011;10210;52.284;9.892;2023-06-10T06:15:30;13.50;;;4.40;;
20101;SDS011;10210;52.284;9.892;2023-06-10T06:17:56;9.60;;;3.90;;
20101;SDS011;10210;52.284;9.892;2023-06-10T06:20:23;12.83;;;4.20;;
20101;SDS011;10210;52.284;9.892;2023-06-10T06:22:50;12.73;;;4.50;;
20101;SDS011;10210;52.284;9.892;2023-06-10T06:25:16;12.23;;;4.60;;
20101;SDS011;10210;52.284;9.892;2023-06-10T06:27:41;10.67;;;4.00;;
20101;SDS011;10210;52.284;9.892;2023-06-10T06:30:08;12.07;;;4.50;;
20101;SDS011;10210;52.284;9.892;2023-06-10T06:32:34;11.80;;;4.23;;
20101;SDS011;10210;52.284;9.892;2023-06-10T06:35:02;14.27;;;4.70;;
20101;SDS011;10210;52.284;9.892;2023-06-10T06:37:30;11.50;;;4.30;;
20101;SDS011;10210;52.284;9.892;2023-06-10T06:39:57;10.37;;;3.90;;
20101;SDS011;10210;52.284;9.892;2023-06-10T06:42:23;11.50;;;3.67;;
20101;SDS011;10210;52.284;9.892;2023-06-10T06:44:49;12.50;;;3.97;;
20101;SDS011;10210;52.284;9.892;2023-06-10T06:47:14;10.73;;;3.80;;
20101;SDS011;10210;52.284;9.892;2023-06-10T06:49:43;10.47;;;4.17;;
20101;SDS011;10210;52.284;9.892;2023-06-10T06:52:08;14.80;;;4.37;;
20101;SDS011;10210;52.284;9.892;2023-06-10T06:54:34;12.20;;;4.37;;
20101;SDS011;10210;52.284;9.892;2023-06-10T06:57:00;13.27;;;4.17;;
20101;SDS011;10210;52.284;9.892;2023-06-10T06:59:25;10.63;;;4.00;;
20101;SDS011;10210;52.284;9.892;2023-06-10T07:01:51;13.00;;;4.90;;
20101;SDS011;10210;52.284;9.892;2023-06-10T07:04:19;13.40;;;4.63;;
20101;SDS011;10210;52.284;9.892;2023-06-10T07:06:46;12.63;;;3.80;;
20101;SDS011;10210;52.284;9.892;2023-06-10T07:09:12;12.93;;;4.30;;
20101;SDS011;10210;52.284;9.892;2023-06-10T07:11:38;11.83;;;4.03;;
20101;SDS011;10210;52.284;9.892;2023-06-10T07:14:04;11.33;;;3.90;;
20101;SDS011;10210;52.284;9.892;2023-06-10T07:16:30;12.43;;;4.20;;
20101;SDS011;10210;52.284;9.892;2023-06-10T07:18:55;13.67;;;4.17;;
20101;SDS011;10210;52.284;9.892;2023-06-10T07:21:21;12.30;;;4.17;;
20101;SDS011;10210;52.284;9.892;2023-06-10T07:23:48;10.50;;;3.87;;
20101;SDS011;10210;52.284;9.892;2023-06-10T07:26:14;12.83;;;4.43;;
20101;SDS011;10210;52.284;9.892;2023-06-10T07:28:40;12.43;;;3.97;;
20101;SDS011;10210;52.284;9.892;2023-06-10T07:31:07;11.52;;;4.15;;
20101;SDS011;10210;52.284;9.892;2023-06-10T07:33:35;11.13;;;3.80;;
20101;SDS011;10210;52.284;9.892;2023-06-10T07:36:02;10.88;;;3.90;;
20101;SDS011;10210;52.284;9.892;2023-06-10T07:38:27;11.60;;;3.88;;
20101;SDS011;10210;52.284;9.892;2023-06-10T07:40:53;9.45;;;3.67;;
20101;SDS011;10210;52.284;9.892;2023-06-10T07:43:19;9.93;;;3.72;;
20101;SDS011;10210;52.284;9.892;2023-06-10T07:45:44;10.32;;;3.78;;
20101;SDS011;10210;52.284;9.892;2023-06-10T07:48:10;10.93;;;3.88;;
20101;SDS011;10210;52.284;9.892;2023-06-10T07:50:36;13.82;;;3.90;;
20101;SDS011;10210;52.284;9.892;2023-06-10T07:53:02;12.10;;;3.95;;
20101;SDS011;10210;52.284;9.892;2023-06-10T07:55:28;10.48;;;3.83;;
20101;SDS011;10210;52.284;9.892;2023-06-10T07:57:53;9.30;;;3.22;;
20101;SDS011;10210;52.284;9.892;2023-06-10T08:00:20;11.18;;;3.60;;
20101;SDS011;10210;52.284;9.892;2023-06-10T08:02:46;10.07;;;3.65;;
20101;SDS011;10210;52.284;9.892;2023-06-10T08:05:12;9.60;;;3.58;;
20101;SDS011;10210;52.284;9.892;2023-06-10T08:07:38;8.63;;;3.50;;
20101;SDS011;10210;52.284;9.892;2023-06-10T08:10:05;8.45;;;3.25;;
20101;SDS011;10210;52.284;9.892;2023-06-10T08:12:32;10.20;;;3.05;;
20101;SDS011;10210;52.284;9.892;2023-06-10T08:14:59;10.73;;;3.88;;
20101;SDS011;10210;52.284;9.892;2023-06-10T08:17:25;10.63;;;3.70;;
20101;SDS011;10210;52.284;9.892;2023-06-10T08:19:51;10.07;;;3.70;;
20101;SDS011;10210;52.284;9.892;2023-06-10T08:22:16;9.82;;;3.65;;
20101;SDS011;10210;52.284;9.892;2023-06-10T08:24:42;9.02;;;3.42;;
20101;SDS011;10210;52.284;9.892;2023-06-10T08:27:08;9.77;;;3.22;;
20101;SDS011;10210;52.284;9.892;2023-06-10T08:29:33;8.82;;;3.15;;
20101;SDS011;10210;52.284;9.892;2023-06-10T08:31:59;9.82;;;3.33;;
20101;SDS011;10210;52.284;9.892;2023-06-10T08:34:25;10.75;;;3.40;;
20101;SDS011;10210;52.284;9.892;2023-06-10T08:36:51;11.48;;;3.47;;
20101;SDS011;10210;52.284;9.892;2023-06-10T08:39:18;10.38;;;3.50;;
20101;SDS011;10210;52.284;9.892;2023-06-10T08:41:58;9.75;;;3.33;;
20101;SDS011;10210;52.284;9.892;2023-06-10T08:44:42;10.20;;;3.60;;
20101;SDS011;10210;52.284;9.892;2023-06-10T08:47:15;8.55;;;3.15;;
20101;SDS011;10210;52.284;9.892;2023-06-10T08:49:45;8.50;;;3.42;;
20101;SDS011;10210;52.284;9.892;2023-06-10T08:52:18;10.05;;;3.42;;
20101;SDS011;10210;52.284;9.892;2023-06-10T08:54:49;9.93;;;3.50;;
20101;SDS011;10210;52.284;9.892;2023-06-10T08:57:27;10.57;;;3.80;;
20101;SDS011;10210;52.284;9.892;2023-06-10T08:59:55;11.00;;;3.60;;
20101;SDS011;10210;52.284;9.892;2023-06-10T09:02:25;10.20;;;3.53;;
20101;SDS011;10210;52.284;9.892;2023-06-10T09:04:53;11.43;;;3.60;;
20101;SDS011;10210;52.284;9.892;2023-06-10T09:07:21;8.00;;;3.30;;
20101;SDS011;10210;52.284;9.892;2023-06-10T09:09:49;8.48;;;3.45;;
20101;SDS011;10210;52.284;9.892;2023-06-10T09:12:15;8.68;;;3.45;;
20101;SDS011;10210;52.284;9.892;2023-06-10T09:14:43;9.10;;;3.40;;
20101;SDS011;10210;52.284;9.892;2023-06-10T09:17:09;9.13;;;3.42;;
20101;SDS011;10210;52.284;9.892;2023-06-10T09:19:35;9.65;;;3.42;;
20101;SDS011;10210;52.284;9.892;2023-06-10T09:22:04;9.50;;;3.35;;
20101;SDS011;10210;52.284;9.892;2023-06-10T09:24:29;9.90;;;3.60;;
20101;SDS011;10210;52.284;9.892;2023-06-10T09:27:02;8.68;;;3.10;;
20101;SDS011;10210;52.284;9.892;2023-06-10T09:29:31;10.15;;;3.70;;
20101;SDS011;10210;52.284;9.892;2023-06-10T09:32:18;13.57;;;3.40;;
20101;SDS011;10210;52.284;9.892;2023-06-10T09:34:45;9.10;;;3.63;;
20101;SDS011;10210;52.284;9.892;2023-06-10T09:37:12;11.43;;;3.85;;
20101;SDS011;10210;52.284;9.892;2023-06-10T09:39:39;11.75;;;4.20;;
20101;SDS011;10210;52.284;9.892;2023-06-10T09:42:15;13.95;;;4.07;;
20101;SDS011;10210;52.284;9.892;2023-06-10T09:44:42;9.52;;;3.58;;
20101;SDS011;10210;52.284;9.892;2023-06-10T09:47:20;9.18;;;3.72;;
20101;SDS011;10210;52.284;9.892;2023-06-10T09:49:47;11.25;;;3.85;;
20101;SDS011;10210;52.284;9.892;2023-06-10T09:52:24;8.75;;;3.45;;
20101;SDS011;10210;52.284;9.892;2023-06-10T09:54:51;8.98;;;3.38;;
20101;SDS011;10210;52.284;9.892;2023-06-10T09:57:23;11.20;;;3.38;;
20101;SDS011;10210;52.284;9.892;2023-06-10T09:59:52;10.25;;;3.63;;
20101;SDS011;10210;52.284;9.892;2023-06-10T10:02:19;12.13;;;4.28;;
20101;SDS011;10210;52.284;9.892;2023-06-10T10:04:45;11.18;;;4.40;;
20101;SDS011;10210;52.284;9.892;2023-06-10T10:07:11;10.90;;;4.15;;
20101;SDS011;10210;52.284;9.892;2023-06-10T10:09:37;9.63;;;3.72;;
20101;SDS011;10210;52.284;9.892;2023-06-10T10:12:09;8.65;;;3.63;;
20101;SDS011;10210;52.284;9.892;2023-06-10T10:14:38;11.80;;;3.90;;
20101;SDS011;10210;52.284;9.892;2023-06-10T10:17:09;11.93;;;3.80;;
20101;SDS011;10210;52.284;9.892;2023-06-10T10:19:38;12.73;;;4.90;;
20101;SDS011;10210;52.284;9.892;2023-06-10T10:22:15;12.63;;;4.22;;
20101;SDS011;10210;52.284;9.892;2023-06-10T10:24:49;10.43;;;3.90;;
20101;SDS011;10210;52.284;9.892;2023-06-10T10:27:18;11.57;;;4.50;;
20101;SDS011;10210;52.284;9.892;2023-06-10T10:29:55;11.30;;;4.07;;
20101;SDS011;10210;52.284;9.892;2023-06-10T10:32:26;10.98;;;4.13;;
20101;SDS011;10210;52.284;9.892;2023-06-10T10:35:09;12.25;;;4.22;;
20101;SDS011;10210;52.284;9.892;2023-06-10T10:37:44;11.00;;;4.22;;
20101;SDS011;10210;52.284;9.892;2023-06-10T10:40:11;11.07;;;4.05;;
20101;SDS011;10210;52.284;9.892;2023-06-10T10:42:38;11.48;;;4.22;;
20101;SDS011;10210;52.284;9.892;2023-06-10T10:45:06;10.95;;;4.07;;
20101;SDS011;10210;52.284;9.892;2023-06-10T10:47:34;11.57;;;4.25;;
20101;SDS011;10210;52.284;9.892;2023-06-10T10:50:03;11.50;;;4.15;;
20101;SDS011;10210;52.284;9.892;2023-06-10T10:52:51;9.90;;;4.13;;
20101;SDS011;10210;52.284;9.892;2023-06-10T10:55:22;13.98;;;4.60;;
20101;SDS011;10210;52.284;9.892;2023-06-10T10:58:07;12.07;;;4.15;;
20101;SDS011;10210;52.284;9.892;2023-06-10T11:00:35;11.40;;;3.95;;
20101;SDS011;10210;52.284;9.892;2023-06-10T11:05:36;10.60;;;3.97;;
20101;SDS011;10210;52.284;9.892;2023-06-10T11:08:09;17.13;;;5.53;;
20101;SDS011;10210;52.284;9.892;2023-06-10T11:13:09;10.63;;;4.03;;
20101;SDS011;10210;52.284;9.892;2023-06-10T11:15:43;13.90;;;4.82;;
20101;SDS011;10210;52.284;9.892;2023-06-10T11:18:28;11.05;;;4.22;;
20101;SDS011;10210;52.284;9.892;2023-06-10T11:21:04;11.02;;;4.10;;
20101;SDS011;10210;52.284;9.892;2023-06-10T11:26:19;12.57;;;4.47;;
20101;SDS011;10210;52.284;9.892;2023-06-10T11:31:30;10.10;;;4.20;;
20101;SDS011;10210;52.284;9.892;2023-06-10T11:34:07;11.63;;;4.70;;
20101;SDS011;10210;52.284;9.892;2023-06-10T11:36:36;9.95;;;4.30;;
20101;SDS011;10210;52.284;9.892;2023-06-10T11:39:08;10.10;;;4.07;;
20101;SDS011;10210;52.284;9.892;2023-06-10T11:41:35;9.05;;;4.30;;
20101;SDS011;10210;52.284;9.892;2023-06-10T11:44:04;12.55;;;4.47;;
20101;SDS011;10210;52.284;9.892;2023-06-10T11:46:33;10.20;;;4.40;;
20101;SDS011;10210;52.284;9.892;2023-06-10T11:49:00;10.10;;;4.32;;
20101;SDS011;10210;52.284;9.892;2023-06-10T11:51:48;11.50;;;4.75;;
20101;SDS011;10210;52.284;9.892;2023-06-10T11:54:18;13.50;;;4.43;;
20101;SDS011;10210;52.284;9.892;2023-06-10T11:56:46;13.27;;;4.60;;
20101;SDS011;10210;52.284;9.892;2023-06-10T11:59:13;10.50;;;4.50;;
20101;SDS011;10210;52.284;9.892;2023-06-10T12:01:43;11.52;;;4.63;;
20101;SDS011;10210;52.284;9.892;2023-06-10T12:04:11;10.63;;;4.60;;
20101;SDS011;10210;52.284;9.892;2023-06-10T12:06:45;10.52;;;4.30;;
20101;SDS011;10210;52.284;9.892;2023-06-10T12:09:20;9.75;;;4.25;;
20101;SDS011;10210;52.284;9.892;2023-06-10T12:19:56;11.55;;;5.05;;
20101;SDS011;10210;52.284;9.892;2023-06-10T12:22:22;13.57;;;4.90;;
20101;SDS011;10210;52.284;9.892;2023-06-10T12:27:29;12.40;;;5.00;;
20101;SDS011;10210;52.284;9.892;2023-06-10T12:29:57;9.55;;;4.63;;
20101;SDS011;10210;52.284;9.892;2023-06-10T12:33:02;10.68;;;4.63;;
20101;SDS011;10210;52.284;9.892;2023-06-10T12:35:22;11.18;;;5.03;;
20101;SDS011;10210;52.284;9.892;2023-06-10T12:37:54;11.35;;;4.80;;
20101;SDS011;10210;52.284;9.892;2023-06-10T12:40:36;11.40;;;4.93;;
20101;SDS011;10210;52.284;9.892;2023-06-10T12:43:05;10.25;;;4.45;;
20101;SDS011;10210;52.284;9.892;2023-06-10T12:45:35;12.77;;;4.85;;
20101;SDS011;10210;52.284;9.892;2023-06-10T12:48:10;11.52;;;4.50;;
20101;SDS011;10210;52.284;9.892;2023-06-10T12:50:50;12.13;;;4.60;;
20101;SDS011;10210;52.284;9.892;2023-06-10T12:53:18;10.88;;;4.78;;
20101;SDS011;10210;52.284;9.892;2023-06-10T12:55:45;12.13;;;4.53;;
20101;SDS011;10210;52.284;9.892;2023-06-10T12:58:12;11.00;;;4.63;;
20101;SDS011;10210;52.284;9.892;2023-06-10T13:00:38;12.15;;;5.20;;
20101;SDS011;10210;52.284;9.892;2023-06-10T13:03:08;10.68;;;4.75;;
20101;SDS011;10210;52.284;9.892;2023-06-10T13:05:38;11.07;;;4.80;;
20101;SDS011;10210;52.284;9.892;2023-06-10T13:08:07;10.82;;;4.43;;
20101;SDS011;10210;52.284;9.892;2023-06-10T13:10:35;11.85;;;4.82;;
20101;SDS011;10210;52.284;9.892;2023-06-10T13:13:01;11.73;;;4.78;;
20101;SDS011;10210;52.284;9.892;2023-06-10T13:15:31;13.05;;;4.80;;
20101;SDS011;10210;52.284;9.892;2023-06-10T13:18:01;10.60;;;4.65;;
20101;SDS011;10210;52.284;9.892;2023-06-10T13:20:30;9.85;;;4.50;;
20101;SDS011;10210;52.284;9.892;2023-06-10T13:22:56;11.60;;;4.97;;
20101;SDS011;10210;52.284;9.892;2023-06-10T13:25:22;10.85;;;4.72;;
20101;SDS011;10210;52.284;9.892;2023-06-10T13:27:48;10.30;;;4.47;;
20101;SDS011;10210;52.284;9.892;2023-06-10T13:30:13;12.57;;;4.75;;
20101;SDS011;10210;52.284;9.892;2023-06-10T13:32:39;11.15;;;4.50;;
20101;SDS011;10210;52.284;9.892;2023-06-10T13:35:05;10.05;;;4.38;;
20101;SDS011;10210;52.284;9.892;2023-06-10T13:37:32;10.63;;;4.32;;
20101;SDS011;10210;52.284;9.892;2023-06-10T13:39:58;10.05;;;4.40;;
20101;SDS011;10210;52.284;9.892;2023-06-10T13:42:24;10.32;;;4.45;;
20101;SDS011;10210;52.284;9.892;2023-06-10T13:44:54;12.00;;;4.88;;
20101;SDS011;10210;52.284;9.892;2023-06-10T13:47:19;10.80;;;4.32;;
20101;SDS011;10210;52.284;9.892;2023-06-10T13:49:45;12.40;;;4.82;;
20101;SDS011;10210;52.284;9.892;2023-06-10T13:52:11;12.15;;;4.65;;
20101;SDS011;10210;52.284;9.892;2023-06-10T13:54:37;9.27;;;4.25;;
20101;SDS011;10210;52.284;9.892;2023-06-10T13:57:03;10.70;;;4.68;;
20101;SDS011;10210;52.284;9.892;2023-06-10T13:59:29;11.98;;;4.90;;
20101;SDS011;10210;52.284;9.892;2023-06-10T14:01:55;11.07;;;4.85;;
20101;SDS011;10210;52.284;9.892;2023-06-10T14:04:21;11.13;;;4.57;;
20101;SDS011;10210;52.284;9.892;2023-06-10T14:06:47;10.52;;;4.32;;
20101;SDS011;10210;52.284;9.892;2023-06-10T14:09:13;10.00;;;4.22;;
20101;SDS011;10210;52.284;9.892;2023-06-10T14:11:39;9.88;;;4.53;;
20101;SDS011;10210;52.284;9.892;2023-06-10T14:14:05;11.52;;;4.72;;
20101;SDS011;10210;52.284;9.892;2023-06-10T14:16:31;12.30;;;4.80;;
20101;SDS011;10210;52.284;9.892;2023-06-10T14:18:56;9.88;;;4.80;;
20101;SDS011;10210;52.284;9.892;2023-06-10T14:21:22;10.38;;;4.30;;
20101;SDS011;10210;52.284;9.892;2023-06-10T14:23:48;9.30;;;4.43;;
20101;SDS011;10210;52.284;9.892;2023-06-10T14:26:15;12.50;;;4.65;;
20101;SDS011;10210;52.284;9.892;2023-06-10T14:28:40;13.25;;;6.75;;
20101;SDS011;10210;52.284;9.892;2023-06-10T14:31:06;13.95;;;5.65;;
20101;SDS011;10210;52.284;9.892;2023-06-10T14:33:32;11.63;;;5.38;;
20101;SDS011;10210;52.284;9.892;2023-06-10T14:35:58;11.27;;;4.97;;
20101;SDS011;10210;52.284;9.892;2023-06-10T14:38:23;9.10;;;4.40;;
20101;SDS011;10210;52.284;9.892;2023-06-10T14:40:49;8.80;;;3.80;;
20101;SDS011;10210;52.284;9.892;2023-06-10T14:43:15;13.00;;;5.30;;
20101;SDS011;10210;52.284;9.892;2023-06-10T14:45:40;15.38;;;6.95;;
20101;SDS011;10210;52.284;9.892;2023-06-10T14:48:07;11.02;;;5.05;;
20101;SDS011;10210;52.284;9.892;2023-06-10T14:50:34;10.82;;;5.00;;
20101;SDS011;10210;52.284;9.892;2023-06-10T14:53:00;10.80;;;5.25;;
20101;SDS011;10210;52.284;9.892;2023-06-10T14:55:29;10.07;;;4.45;;
20101;SDS011;10210;52.284;9.892;2023-06-10T14:57:54;11.43;;;4.60;;
20101;SDS011;10210;52.284;9.892;2023-06-10T15:00:21;11.95;;;4.80;;
20101;SDS011;10210;52.284;9.892;2023-06-10T15:02:48;10.75;;;4.40;;
20101;SDS011;10210;52.284;9.892;2023-06-10T15:05:15;11.25;;;4.60;;